createdAt,value
2023-08-01T00:01:49.593Z,76.71
2023-08-01T00:04:17.585Z,76.84
2023-08-01T00:06:44.482Z,76.91
2023-08-01T00:09:11.125Z,76.95
2023-08-01T00:11:37.725Z,77.11
2023-08-01T00:14:04.642Z,77.12
2023-08-01T00:16:32.224Z,77.21
2023-08-01T00:18:58.987Z,77.34
2023-08-01T00:21:26.060Z,76.98
2023-08-01T00:23:53.120Z,76.68
2023-08-01T00:26:19.805Z,76.71
2023-08-01T00:28:46.814Z,76.87
2023-08-01T00:31:13.482Z,77.23
2023-08-01T00:33:40.112Z,77.30
2023-08-01T00:36:12.407Z,77.01
2023-08-01T00:38:39.136Z,76.79
2023-08-01T00:41:06.056Z,77.09
2023-08-01T00:43:33.122Z,77.33
2023-08-01T00:46:04.929Z,77.40
2023-08-01T00:48:32.663Z,77.28
2023-08-01T00:51:01.987Z,77.51
2023-08-01T00:53:29.510Z,77.38
2023-08-01T00:55:56.557Z,77.71
2023-08-01T00:58:23.606Z,77.78
2023-08-01T01:00:50.342Z,77.86
2023-08-01T01:03:18.192Z,77.59
2023-08-01T01:06:09.301Z,77.90
2023-08-01T01:08:35.897Z,77.57
2023-08-01T01:11:02.576Z,77.58
2023-08-01T01:13:29.292Z,77.55
2023-08-01T01:15:55.927Z,77.55
2023-08-01T01:18:22.672Z,77.47
2023-08-01T01:20:49.565Z,77.32
2023-08-01T01:23:17.281Z,77.34
2023-08-01T01:25:44.213Z,77.24
2023-08-01T01:28:12.015Z,77.29
2023-08-01T01:30:39.470Z,77.47
2023-08-01T01:33:06.725Z,77.49
2023-08-01T01:35:36.581Z,77.10
2023-08-01T01:38:06.780Z,77.47
2023-08-01T01:40:34.445Z,77.84
2023-08-01T01:43:02.253Z,77.74
2023-08-01T01:45:28.953Z,77.83
2023-08-01T01:47:55.617Z,77.77
2023-08-01T01:50:22.445Z,77.82
2023-08-01T01:52:49.086Z,77.93
2023-08-01T01:55:16.152Z,77.92
2023-08-01T01:57:42.926Z,77.89
2023-08-01T02:00:13.150Z,77.98
2023-08-01T02:02:40.017Z,78.04
2023-08-01T02:05:07.107Z,78.03
2023-08-01T02:07:34.965Z,78.06
2023-08-01T02:10:02.323Z,78.01
2023-08-01T02:12:32.868Z,77.88
2023-08-01T02:14:59.843Z,78.06
2023-08-01T02:17:27.146Z,77.72
2023-08-01T02:19:54.222Z,77.67
2023-08-01T02:22:21.241Z,77.90
2023-08-01T02:24:47.949Z,77.58
2023-08-01T02:27:15.099Z,77.41
2023-08-01T02:29:41.844Z,77.20
2023-08-01T02:32:08.708Z,77.17
2023-08-01T02:34:35.498Z,76.92
2023-08-01T02:37:02.168Z,76.78
2023-08-01T02:39:28.913Z,76.55
2023-08-01T02:41:55.658Z,76.47
2023-08-01T02:44:25.866Z,76.69
2023-08-01T02:46:52.563Z,76.43
2023-08-01T02:49:19.454Z,76.56
2023-08-01T02:51:46.180Z,76.32
2023-08-01T02:54:12.710Z,76.44
2023-08-01T02:56:42.928Z,76.26
2023-08-01T02:59:10.180Z,76.45
2023-08-01T03:01:40.519Z,76.43
2023-08-01T03:04:07.976Z,76.51
2023-08-01T03:06:34.970Z,76.54
2023-08-01T03:09:02.191Z,76.56
2023-08-01T03:11:29.076Z,76.52
2023-08-01T03:13:55.954Z,76.67
2023-08-01T03:16:22.709Z,76.58
2023-08-01T03:18:49.642Z,76.47
2023-08-01T03:21:16.428Z,76.44
2023-08-01T03:23:43.222Z,76.62
2023-08-01T03:26:10.132Z,76.56
2023-08-01T03:28:36.791Z,76.53
2023-08-01T03:31:03.576Z,76.83
2023-08-01T03:33:30.922Z,77.02
2023-08-01T03:35:57.589Z,77.38
2023-08-01T03:38:24.194Z,77.57
2023-08-01T03:40:51.088Z,77.55
2023-08-01T03:43:17.842Z,77.62
2023-08-01T03:45:44.572Z,77.71
2023-08-01T03:48:11.442Z,77.63
2023-08-01T03:50:38.080Z,77.88
2023-08-01T03:53:04.718Z,77.93
2023-08-01T03:55:31.498Z,77.90
2023-08-01T03:57:58.102Z,78.05
2023-08-01T04:00:24.867Z,77.77
2023-08-01T04:02:51.685Z,77.95
2023-08-01T04:05:19.146Z,78.05
2023-08-01T04:07:45.871Z,78.41
2023-08-01T04:10:12.659Z,78.38
2023-08-01T04:12:39.288Z,78.50
2023-08-01T04:15:06.638Z,78.65
2023-08-01T04:17:33.365Z,78.66
2023-08-01T04:20:00.185Z,78.75
2023-08-01T04:22:26.931Z,78.69
2023-08-01T04:24:53.768Z,78.69
2023-08-01T04:27:20.365Z,78.93
2023-08-01T04:29:47.428Z,78.77
2023-08-01T04:32:15.149Z,79.02
2023-08-01T04:34:42.698Z,78.75
2023-08-01T04:37:09.584Z,78.76
2023-08-01T04:39:36.378Z,78.77
2023-08-01T04:42:03.318Z,78.86
2023-08-01T04:44:30.820Z,78.63
2023-08-01T04:46:57.811Z,78.75
2023-08-01T04:49:27.743Z,78.69
2023-08-01T04:51:55.196Z,78.86
2023-08-01T04:54:22.129Z,79.06
2023-08-01T04:56:48.841Z,79.03
2023-08-01T04:59:15.594Z,79.42
2023-08-01T05:01:42.407Z,79.38
2023-08-01T05:04:09.099Z,79.45
2023-08-01T05:06:36.074Z,79.55
2023-08-01T05:09:03.501Z,79.71
2023-08-01T05:11:30.169Z,79.85
2023-08-01T05:13:56.895Z,79.94
2023-08-01T05:16:23.884Z,79.79
2023-08-01T05:18:50.530Z,79.86
2023-08-01T05:21:17.248Z,80.00
2023-08-01T05:23:44.141Z,80.17
2023-08-01T05:26:10.831Z,80.45
2023-08-01T05:28:37.726Z,80.78
2023-08-01T05:31:04.966Z,80.39
2023-08-01T05:33:31.608Z,80.83
2023-08-01T05:35:58.489Z,80.73
2023-08-01T05:38:25.176Z,80.83
2023-08-01T05:40:51.806Z,81.04
2023-08-01T05:43:18.393Z,80.93
2023-08-01T05:45:45.099Z,80.98
2023-08-01T05:48:11.839Z,80.98
2023-08-01T05:50:39.400Z,81.01
2023-08-01T05:53:06.770Z,80.84
2023-08-01T05:55:33.588Z,80.88
2023-08-01T05:58:00.709Z,80.60
2023-08-01T06:00:27.955Z,80.58
2023-08-01T06:02:55.232Z,80.48
2023-08-01T06:05:21.934Z,80.24
2023-08-01T06:07:48.694Z,80.19
2023-08-01T06:10:15.396Z,80.08
2023-08-01T06:12:42.007Z,80.15
2023-08-01T06:15:09.177Z,80.04
2023-08-01T06:17:35.792Z,79.92
2023-08-01T06:20:05.645Z,79.85
2023-08-01T06:22:32.669Z,79.68
2023-08-01T06:24:59.350Z,79.39
2023-08-01T06:27:26.396Z,79.25
2023-08-01T06:29:53.053Z,79.23
2023-08-01T06:32:19.750Z,78.88
2023-08-01T06:34:46.581Z,78.74
2023-08-01T06:37:13.142Z,78.37
2023-08-01T06:39:39.722Z,77.95
2023-08-01T06:42:06.928Z,77.55
2023-08-01T06:44:33.539Z,77.25
2023-08-01T06:47:00.200Z,76.85
2023-08-01T06:49:27.721Z,76.59
2023-08-01T06:51:54.310Z,76.15
2023-08-01T06:54:20.908Z,75.58
2023-08-01T06:56:50.318Z,75.03
2023-08-01T06:59:17.401Z,74.62
2023-08-01T07:01:45.124Z,73.73
2023-08-01T07:04:12.483Z,73.29
2023-08-01T07:06:40.790Z,72.76
2023-08-01T07:09:08.050Z,72.53
2023-08-01T07:11:34.708Z,71.88
2023-08-01T07:14:01.493Z,71.15
2023-08-01T07:16:28.219Z,70.43
2023-08-01T07:18:56.651Z,69.63
2023-08-01T07:21:24.032Z,69.17
2023-08-01T07:23:50.596Z,68.50
2023-08-01T07:26:17.458Z,68.60
2023-08-01T07:28:44.877Z,68.70
2023-08-01T07:31:11.614Z,68.33
2023-08-01T07:33:39.035Z,67.72
2023-08-01T07:36:06.220Z,67.02
2023-08-01T07:38:33.074Z,66.43
2023-08-01T07:41:05.284Z,66.10
2023-08-01T07:43:32.195Z,65.76
2023-08-01T07:45:59.684Z,64.93
2023-08-01T07:48:26.681Z,64.50
2023-08-01T07:50:53.420Z,64.61
2023-08-01T07:53:20.138Z,64.24
2023-08-01T07:55:46.996Z,63.36
2023-08-01T07:58:13.627Z,62.57
2023-08-01T08:00:40.410Z,62.89
2023-08-01T08:03:09.338Z,61.62
2023-08-01T08:05:39.753Z,61.29
2023-08-01T08:08:06.703Z,60.84
2023-08-01T08:10:33.480Z,60.43
2023-08-01T08:13:00.552Z,60.45
2023-08-01T08:15:27.519Z,60.49
2023-08-01T08:17:54.389Z,60.12
2023-08-01T08:20:21.283Z,60.14
2023-08-01T08:22:47.877Z,60.00
2023-08-01T08:25:14.611Z,60.11
2023-08-01T08:27:41.629Z,60.21
2023-08-01T08:30:09.108Z,60.27
2023-08-01T08:32:36.783Z,59.55
2023-08-01T08:35:03.872Z,59.44
2023-08-01T08:37:30.573Z,59.18
2023-08-01T08:39:57.408Z,58.98
2023-08-01T08:42:24.111Z,58.33
2023-08-01T08:44:55.956Z,58.13
2023-08-01T08:47:27.087Z,58.27
2023-08-01T08:49:57.286Z,57.42
2023-08-01T08:52:25.478Z,56.44
2023-08-01T08:54:53.472Z,56.25
2023-08-01T08:57:21.492Z,56.81
2023-08-01T08:59:49.113Z,55.75
2023-08-01T09:02:16.570Z,55.04
2023-08-01T09:04:43.337Z,55.06
2023-08-01T09:07:12.553Z,54.64
2023-08-01T09:09:39.149Z,54.11
2023-08-01T09:12:06.853Z,53.48
2023-08-01T09:14:34.155Z,53.17
2023-08-01T09:17:08.991Z,52.97
2023-08-01T09:19:36.150Z,53.58
2023-08-01T09:22:10.549Z,53.06
2023-08-01T09:24:37.387Z,52.72
2023-08-01T09:27:05.989Z,52.65
2023-08-01T09:29:35.644Z,52.42
2023-08-01T09:32:12.984Z,51.55
2023-08-01T09:34:39.567Z,51.85
2023-08-01T09:37:06.656Z,51.48
2023-08-01T09:39:33.294Z,52.00
2023-08-01T09:42:01.941Z,51.39
2023-08-01T09:44:29.939Z,51.30
2023-08-01T09:47:04.812Z,50.49
2023-08-01T09:49:32.389Z,50.69
2023-08-01T09:52:00.005Z,49.07
2023-08-01T09:54:27.877Z,48.33
2023-08-01T09:56:57.219Z,48.06
2023-08-01T09:59:26.266Z,47.78
2023-08-01T10:01:54.971Z,47.67
2023-08-01T10:04:28.238Z,47.24
2023-08-01T10:07:07.950Z,47.08
2023-08-01T10:09:36.581Z,47.37
2023-08-01T10:12:05.027Z,47.55
2023-08-01T10:14:33.648Z,47.19
2023-08-01T10:17:00.589Z,47.08
2023-08-01T10:19:32.514Z,46.18
2023-08-01T10:21:59.832Z,46.06
2023-08-01T10:24:27.833Z,46.08
2023-08-01T10:26:54.610Z,46.29
2023-08-01T10:29:21.240Z,46.24
2023-08-01T10:31:55.858Z,45.58
2023-08-01T10:34:26.293Z,44.72
2023-08-01T10:37:00.459Z,44.47
2023-08-01T10:39:29.139Z,44.77
2023-08-01T10:42:00.288Z,44.06
2023-08-01T10:44:27.905Z,43.71
2023-08-01T10:48:10.851Z,43.10
2023-08-01T10:52:28.634Z,43.08
2023-08-01T10:55:03.046Z,42.80
2023-08-01T10:57:31.686Z,42.59
2023-08-01T10:59:59.381Z,42.23
2023-08-01T11:02:28.428Z,41.85
2023-08-01T11:06:28.084Z,41.52
2023-08-01T11:08:54.829Z,41.37
2023-08-01T11:11:21.618Z,41.44
2023-08-01T11:13:57.700Z,41.43
2023-08-01T11:16:24.888Z,41.29
2023-08-01T11:18:51.792Z,41.95
2023-08-01T11:21:31.122Z,41.58
2023-08-01T11:23:58.467Z,41.64
2023-08-01T11:26:25.104Z,41.27
2023-08-01T11:28:52.318Z,41.09
2023-08-01T11:31:19.263Z,40.80
2023-08-01T11:33:57.236Z,40.64
2023-08-01T11:36:27.456Z,41.12
2023-08-01T11:38:55.316Z,40.98
2023-08-01T11:41:22.321Z,40.85
2023-08-01T11:43:49.210Z,40.81
2023-08-01T11:46:15.900Z,40.60
2023-08-01T11:48:48.047Z,42.18
2023-08-01T11:51:14.928Z,41.47
2023-08-01T11:53:41.667Z,40.99
2023-08-01T11:56:09.159Z,40.86
2023-08-01T11:58:37.990Z,40.60
2023-08-01T12:01:10.422Z,40.77
2023-08-01T12:04:04.213Z,40.61
2023-08-01T12:06:33.844Z,39.84
2023-08-01T12:09:10.296Z,39.74
2023-08-01T12:11:37.667Z,40.07
2023-08-01T12:14:11.661Z,39.51
2023-08-01T12:16:43.685Z,39.67
2023-08-01T12:19:10.691Z,39.29
2023-08-01T12:21:37.830Z,38.85
2023-08-01T12:24:04.818Z,38.85
2023-08-01T12:26:32.335Z,38.72
2023-08-01T12:28:58.970Z,39.06
2023-08-01T12:31:26.278Z,39.13
2023-08-01T12:33:54.736Z,38.94
2023-08-01T12:36:21.836Z,39.05
2023-08-01T12:38:48.617Z,39.37
2023-08-01T12:41:15.518Z,39.31
2023-08-01T12:43:42.780Z,39.00
2023-08-01T12:46:09.398Z,39.17
2023-08-01T12:48:36.083Z,38.75
2023-08-01T12:51:03.913Z,39.01
2023-08-01T12:53:30.979Z,38.85
2023-08-01T12:55:57.709Z,39.09
2023-08-01T12:58:24.340Z,38.94
2023-08-01T13:00:51.231Z,38.69
2023-08-01T13:03:18.204Z,38.36
2023-08-01T13:05:44.902Z,38.41
2023-08-01T13:08:11.714Z,38.21
2023-08-01T13:10:39.811Z,37.84
2023-08-01T13:13:07.085Z,38.12
2023-08-01T13:15:33.726Z,37.95
2023-08-01T13:18:00.597Z,38.11
2023-08-01T13:20:29.764Z,38.33
2023-08-01T13:22:57.362Z,38.45
2023-08-01T13:25:24.191Z,39.26
2023-08-01T13:27:50.905Z,39.18
2023-08-01T13:30:19.269Z,38.68
2023-08-01T13:32:46.897Z,38.57
2023-08-01T13:35:17.356Z,38.54
2023-08-01T13:37:44.162Z,38.99
2023-08-01T13:40:12.964Z,39.16
2023-08-01T13:42:39.857Z,39.65
2023-08-01T13:45:07.051Z,40.01
2023-08-01T13:47:34.211Z,41.32
2023-08-01T13:50:01.242Z,41.72
2023-08-01T13:52:27.930Z,41.86
2023-08-01T13:54:54.729Z,42.16
2023-08-01T13:57:21.503Z,41.45
2023-08-01T13:59:55.552Z,40.97
2023-08-01T14:02:33.477Z,40.65
2023-08-01T14:05:00.429Z,40.93
2023-08-01T14:07:27.073Z,41.12
2023-08-01T14:09:54.109Z,40.91
2023-08-01T14:12:21.422Z,40.51
2023-08-01T14:14:48.039Z,40.03
2023-08-01T14:17:14.837Z,39.82
2023-08-01T14:19:41.679Z,39.99
2023-08-01T14:22:08.378Z,40.18
2023-08-01T14:24:35.032Z,40.50
2023-08-01T14:27:01.917Z,40.19
2023-08-01T14:29:28.493Z,40.31
2023-08-01T14:31:55.197Z,40.62
2023-08-01T14:34:22.090Z,40.74
2023-08-01T14:36:48.827Z,40.02
2023-08-01T14:39:22.684Z,39.51
2023-08-01T14:44:20.795Z,39.76
2023-08-01T14:46:47.750Z,39.85
2023-08-01T14:49:17.460Z,39.60
2023-08-01T14:51:44.253Z,39.23
2023-08-01T14:54:12.475Z,39.54
2023-08-01T14:56:41.122Z,39.73
2023-08-01T14:59:08.090Z,39.93
2023-08-01T15:01:35.014Z,39.85
2023-08-01T15:04:01.729Z,39.78
2023-08-01T15:06:28.705Z,39.92
2023-08-01T15:08:55.765Z,40.21
2023-08-01T15:11:22.583Z,41.06
2023-08-01T15:13:49.464Z,41.35
2023-08-01T15:16:18.472Z,40.90
2023-08-01T15:18:48.050Z,40.97
2023-08-01T15:21:15.017Z,40.85
2023-08-01T15:23:41.777Z,40.89
2023-08-01T15:26:08.894Z,41.42
2023-08-01T15:28:40.243Z,41.46
2023-08-01T15:31:09.060Z,41.24
2023-08-01T15:33:37.401Z,42.01
2023-08-01T15:36:06.237Z,42.31
2023-08-01T15:38:34.102Z,42.69
2023-08-01T15:41:08.060Z,42.87
2023-08-01T15:43:40.076Z,43.11
2023-08-01T15:46:07.516Z,42.76
2023-08-01T15:48:35.041Z,42.84
2023-08-01T15:51:03.451Z,42.80
2023-08-01T15:53:30.408Z,42.71
2023-08-01T15:56:23.270Z,42.55
2023-08-01T15:58:50.810Z,42.55
2023-08-01T16:01:17.772Z,42.75
2023-08-01T16:03:45.570Z,43.70
2023-08-01T16:06:15.426Z,44.64
2023-08-01T16:08:42.351Z,45.46
2023-08-01T16:11:09.347Z,45.46
2023-08-01T16:13:36.125Z,45.80
2023-08-01T16:16:02.903Z,45.47
2023-08-01T16:18:29.731Z,45.23
2023-08-01T16:20:56.343Z,45.01
2023-08-01T16:23:23.062Z,45.06
2023-08-01T16:25:49.678Z,45.15
2023-08-01T16:28:16.306Z,45.22
2023-08-01T16:30:43.066Z,45.21
2023-08-01T16:33:11.226Z,45.85
2023-08-01T16:35:38.041Z,46.27
2023-08-01T16:38:04.831Z,46.74
2023-08-01T16:40:32.635Z,47.36
2023-08-01T16:42:59.889Z,47.78
2023-08-01T16:45:26.804Z,48.40
2023-08-01T16:47:53.645Z,48.83
2023-08-01T16:50:21.558Z,49.38
2023-08-01T16:52:49.228Z,49.90
2023-08-01T16:55:17.477Z,50.62
2023-08-01T16:57:44.995Z,51.13
2023-08-01T17:00:12.622Z,52.29
2023-08-01T17:02:39.592Z,52.55
2023-08-01T17:05:08.310Z,53.07
2023-08-01T17:07:35.196Z,53.57
2023-08-01T17:10:03.762Z,54.03
2023-08-01T17:12:30.548Z,54.28
2023-08-01T17:14:57.683Z,54.58
2023-08-01T17:17:24.677Z,55.29
2023-08-01T17:19:51.614Z,55.59
2023-08-01T17:22:18.809Z,55.87
2023-08-01T17:24:46.000Z,56.66
2023-08-01T17:27:15.996Z,56.74
2023-08-01T17:29:42.851Z,57.27
2023-08-01T17:32:09.697Z,57.06
2023-08-01T17:34:36.742Z,57.15
2023-08-01T17:37:05.742Z,57.45
2023-08-01T17:39:34.746Z,57.38
2023-08-01T17:42:01.877Z,57.58
2023-08-01T17:44:29.721Z,57.53
2023-08-01T17:46:59.360Z,57.98
2023-08-01T17:49:26.366Z,58.75
2023-08-01T17:51:53.237Z,59.11
2023-08-01T17:54:21.109Z,59.43
2023-08-01T17:56:48.025Z,59.30
2023-08-01T17:59:17.261Z,59.36
2023-08-01T18:01:44.291Z,59.69
2023-08-01T18:04:11.132Z,59.67
2023-08-01T18:06:38.677Z,60.34
2023-08-01T18:09:07.291Z,60.76
2023-08-01T18:11:34.326Z,60.84
2023-08-01T18:14:04.858Z,60.79
2023-08-01T18:16:31.862Z,60.99
2023-08-01T18:18:58.599Z,61.62
2023-08-01T18:21:25.294Z,61.66
2023-08-01T18:23:52.172Z,61.83
2023-08-01T18:26:23.970Z,61.93
2023-08-01T18:28:55.043Z,61.96
2023-08-01T18:31:23.275Z,61.93
2023-08-01T18:33:50.223Z,62.21
2023-08-01T18:36:21.729Z,62.61
2023-08-01T18:38:49.721Z,62.91
2023-08-01T18:41:16.767Z,63.04
2023-08-01T18:43:44.029Z,63.07
2023-08-01T18:46:10.981Z,63.29
2023-08-01T18:48:38.410Z,63.52
2023-08-01T18:51:12.768Z,63.62
2023-08-01T18:53:40.037Z,63.43
2023-08-01T18:56:13.365Z,63.98
2023-08-01T18:58:42.332Z,64.03
2023-08-01T19:01:17.227Z,64.03
2023-08-01T19:03:45.499Z,64.33
2023-08-01T19:06:14.618Z,64.58
2023-08-01T19:08:41.470Z,64.59
2023-08-01T19:11:08.374Z,64.95
2023-08-01T19:13:35.252Z,64.92
2023-08-01T19:16:02.193Z,65.07
2023-08-01T19:23:04.076Z,65.41
2023-08-01T19:51:12.114Z,67.00
2023-08-01T19:53:39.173Z,67.21
2023-08-01T19:56:05.777Z,67.43
2023-08-01T19:58:32.451Z,67.75
2023-08-01T20:00:59.168Z,67.82
2023-08-01T20:03:25.986Z,68.18
2023-08-01T20:05:57.667Z,68.14
2023-08-01T20:08:25.028Z,68.33
2023-08-01T20:11:02.278Z,68.35
2023-08-01T20:13:31.998Z,68.38
2023-08-01T20:15:58.760Z,68.51
2023-08-01T20:18:25.607Z,68.52
2023-08-01T20:20:53.682Z,68.56
2023-08-01T20:23:20.303Z,68.77
2023-08-01T20:25:48.867Z,69.09
2023-08-01T20:28:18.298Z,69.12
2023-08-01T20:30:45.936Z,69.18
2023-08-01T20:33:12.726Z,69.32
2023-08-01T20:35:39.478Z,69.45
2023-08-01T20:38:06.174Z,69.57
2023-08-01T20:40:34.545Z,69.56
2023-08-01T20:43:01.991Z,69.58
2023-08-01T20:45:28.729Z,69.78
2023-08-01T20:47:58.485Z,69.81
2023-08-01T20:50:27.605Z,69.93
2023-08-01T20:52:54.622Z,70.13
2023-08-01T20:55:21.239Z,70.12
2023-08-01T20:57:49.893Z,70.19
2023-08-01T21:00:16.753Z,70.25
2023-08-01T21:02:43.647Z,70.20
2023-08-01T21:05:10.526Z,70.52
2023-08-01T21:07:37.141Z,70.57
2023-08-01T21:10:03.925Z,70.61
2023-08-01T21:12:30.927Z,70.63
2023-08-01T21:14:58.493Z,70.74
2023-08-01T21:17:25.345Z,70.63
2023-08-01T21:19:52.915Z,70.75
2023-08-01T21:22:19.599Z,70.91
2023-08-01T21:24:46.377Z,70.93
2023-08-01T21:27:13.229Z,70.96
2023-08-01T21:29:39.962Z,71.03
2023-08-01T21:32:06.998Z,71.08
2023-08-01T21:34:33.737Z,71.16
2023-08-01T21:37:00.352Z,71.21
2023-08-01T21:39:28.063Z,71.39
2023-08-01T21:41:54.803Z,71.39
2023-08-01T21:44:21.557Z,71.43
2023-08-01T21:46:48.288Z,71.40
2023-08-01T21:49:15.184Z,71.45
2023-08-01T21:51:41.785Z,71.57
2023-08-01T21:54:09.503Z,71.52
2023-08-01T21:56:36.348Z,71.75
2023-08-01T21:59:02.917Z,71.81
2023-08-01T22:01:29.661Z,71.93
2023-08-01T22:03:56.656Z,71.97
2023-08-01T22:06:23.350Z,72.26
2023-08-01T22:08:50.083Z,72.56
2023-08-01T22:11:18.380Z,72.35
2023-08-01T22:13:45.095Z,72.20
2023-08-01T22:16:12.190Z,72.35
2023-08-01T22:18:38.868Z,72.40
2023-08-01T22:21:05.553Z,72.32
2023-08-01T22:23:32.373Z,72.32
2023-08-01T22:25:59.118Z,72.65
2023-08-01T22:28:30.765Z,72.62
2023-08-01T22:30:57.958Z,72.77
2023-08-01T22:33:24.803Z,72.90
2023-08-01T22:35:51.505Z,72.93
2023-08-01T22:38:18.296Z,72.83
2023-08-01T22:40:45.090Z,72.98
2023-08-01T22:43:14.210Z,72.96
2023-08-01T22:45:41.576Z,72.97
2023-08-01T22:48:08.933Z,73.01
2023-08-01T22:50:35.851Z,73.09
2023-08-01T22:53:04.956Z,73.08
2023-08-01T22:55:32.361Z,73.04
2023-08-01T22:57:58.993Z,73.09
2023-08-01T23:00:25.776Z,73.11
2023-08-01T23:02:52.590Z,73.01
2023-08-01T23:05:19.648Z,73.11
2023-08-01T23:07:46.643Z,73.23
2023-08-01T23:10:13.397Z,73.13
2023-08-01T23:12:40.003Z,73.31
2023-08-01T23:15:07.982Z,73.46
2023-08-01T23:17:35.920Z,73.47
2023-08-01T23:20:03.478Z,73.41
2023-08-01T23:22:30.221Z,73.23
2023-08-01T23:24:57.037Z,73.29
2023-08-01T23:27:23.855Z,73.43
2023-08-01T23:29:56.957Z,73.41
2023-08-01T23:32:23.684Z,73.61
2023-08-01T23:34:50.351Z,73.50
2023-08-01T23:37:17.321Z,73.49
2023-08-01T23:39:43.989Z,73.51
2023-08-01T23:42:10.577Z,73.82
2023-08-01T23:44:37.770Z,73.76
2023-08-01T23:47:04.631Z,73.78
2023-08-01T23:49:33.853Z,73.79
2023-08-01T23:52:01.077Z,73.74
2023-08-01T23:54:27.954Z,73.84
2023-08-01T23:56:54.826Z,73.84
2023-08-01T23:59:21.606Z,73.83
